Nördlingen Airport EDNO

Flugplatz Daten

Name: Nördlingen Airport

Ident: EDNO

Lat: 48,87055588

Long: 10,50500011

Platzhöhe: 1385 ft

IataCode:

City: Nördlingen

Metar

2019/01/30 15:20
EYSA 301520Z 19002KT 0200 R14L/0375N FZFG VV002 M05/M05 Q1008 R14L/29//95 REDNOSIG

Taf

Gewünschte Webcam nicht vorhanden? Dann fügen Sie eine hinzu. Sie wird dann so schnell wie möglich freigeschaltet
Url: Title: